Terminal Aerodrome Forecast
Issued by NWS Charleston, WV

Current Version | Previous Version | Graphics & Text | Print | Product List | Glossary On
Versions: 1 2 3 4 5 6 7 8 9 10 11 12 13 14 15 16 17 18 19 20 21 22
000
FTUS41 KRLX 272253 AAA
TAFEKN
TAF AMD
KEKN 272253Z 2723/2818 21008KT 5SM SHRA VCTS BKN040CB
     FM280000 25010G20KT P6SM BKN025
     FM280500 27008G18KT P6SM VCSH OVC025
     FM280900 25008G15KT P6SM OVC020
     FM281500 28010G18KT P6SM BKN025=

USA.gov is the U.S. government's official web portal to all federal, state and local government web resources and services.